<?xml version="1.0" encoding="UTF-8" standalone="no" ?>
<gpx xmlns="http://www.topografix.com/GPX/1/1" xmlns:xsi="http://www.w3.org/2001/XMLSchema-instance" xsi:schemaLocation="http://www.topografix.com/GPX/1/1 http://www.topografix.com/GPX/1/1/gpx.xsd" version="1.1" creator="VisuGPX - https://www.visugpx.com">
  <metadata>
    <name>Bassanel près d\'Olonzac</name>
    <desc><![CDATA[Le temps est couvert Pierrot a décidé une courte promenade près de chez nous ...
Le rendez vous est au bord du canal à Bassanel. Le parcours commence dans le bois de pins et débouche sur l\'écluse de Pech-laurier. Des escaliers et un balcon pour profiter du panorama sur le lac des aiguilles. Un petit tour facile et bien aménagé.]]></desc>
  </metadata>
  <trk>
    <name><![CDATA[Tracé 001]]></name>
    <trkseg>
      <trkpt lat="43.28295" lon="2.7286">
        <ele>63.1</ele>
        <time>2011-05-30T14:11:58Z</time>
      </trkpt>
      <trkpt lat="43.28292" lon="2.72856">
        <ele>63.1</ele>
        <time>2011-05-30T14:12:09Z</time>
      </trkpt>
      <trkpt lat="43.28292" lon="2.72852">
        <ele>63.1</ele>
        <time>2011-05-30T14:12:25Z</time>
      </trkpt>
      <trkpt lat="43.28293" lon="2.72852">
        <ele>63.1</ele>
        <time>2011-05-30T14:12:46Z</time>
      </trkpt>
      <trkpt lat="43.28293" lon="2.72852">
        <ele>63.1</ele>
        <time>2011-05-30T14:13:03Z</time>
      </trkpt>
      <trkpt lat="43.28293" lon="2.72852">
        <ele>63.1</ele>
        <time>2011-05-30T14:13:21Z</time>
      </trkpt>
      <trkpt lat="43.28292" lon="2.7285">
        <ele>63.1</ele>
        <time>2011-05-30T14:13:30Z</time>
      </trkpt>
      <trkpt lat="43.28291" lon="2.7285">
        <ele>63.1</ele>
        <time>2011-05-30T14:13:42Z</time>
      </trkpt>
      <trkpt lat="43.28292" lon="2.72842">
        <ele>62.62</ele>
        <time>2011-05-30T14:13:52Z</time>
      </trkpt>
      <trkpt lat="43.28295" lon="2.72832">
        <ele>63.1</ele>
        <time>2011-05-30T14:14:04Z</time>
      </trkpt>
      <trkpt lat="43.28295" lon="2.72832">
        <ele>63.58</ele>
        <time>2011-05-30T14:14:14Z</time>
      </trkpt>
      <trkpt lat="43.28296" lon="2.72831">
        <ele>63.58</ele>
        <time>2011-05-30T14:14:16Z</time>
      </trkpt>
      <trkpt lat="43.28295" lon="2.72831">
        <ele>63.1</ele>
        <time>2011-05-30T14:14:30Z</time>
      </trkpt>
      <trkpt lat="43.28294" lon="2.72831">
        <ele>63.58</ele>
        <time>2011-05-30T14:14:49Z</time>
      </trkpt>
      <trkpt lat="43.28289" lon="2.72848">
        <ele>63.58</ele>
        <time>2011-05-30T14:15:01Z</time>
      </trkpt>
      <trkpt lat="43.28285" lon="2.72849">
        <ele>63.1</ele>
        <time>2011-05-30T14:15:06Z</time>
      </trkpt>
      <trkpt lat="43.28276" lon="2.72848">
        <ele>63.58</ele>
        <time>2011-05-30T14:15:19Z</time>
      </trkpt>
      <trkpt lat="43.28267" lon="2.72853">
        <ele>55.41</ele>
        <time>2011-05-30T14:42:27Z</time>
      </trkpt>
      <trkpt lat="43.28268" lon="2.72853">
        <ele>55.41</ele>
        <time>2011-05-30T14:43:02Z</time>
      </trkpt>
      <trkpt lat="43.28268" lon="2.72853">
        <ele>55.89</ele>
        <time>2011-05-30T14:43:37Z</time>
      </trkpt>
      <trkpt lat="43.28262" lon="2.72852">
        <ele>54.45</ele>
        <time>2011-05-30T14:48:26Z</time>
      </trkpt>
      <trkpt lat="43.28263" lon="2.72852">
        <ele>53.49</ele>
        <time>2011-05-30T14:48:56Z</time>
      </trkpt>
      <trkpt lat="43.28263" lon="2.72852">
        <ele>53.97</ele>
        <time>2011-05-30T14:49:25Z</time>
      </trkpt>
      <trkpt lat="43.28263" lon="2.72852">
        <ele>53.97</ele>
        <time>2011-05-30T14:50:01Z</time>
      </trkpt>
      <trkpt lat="43.28263" lon="2.72852">
        <ele>53.01</ele>
        <time>2011-05-30T14:50:31Z</time>
      </trkpt>
      <trkpt lat="43.28263" lon="2.72852">
        <ele>54.45</ele>
        <time>2011-05-30T14:51:02Z</time>
      </trkpt>
      <trkpt lat="43.28263" lon="2.72852">
        <ele>53.97</ele>
        <time>2011-05-30T14:51:37Z</time>
      </trkpt>
      <trkpt lat="43.28263" lon="2.72851">
        <ele>53.49</ele>
        <time>2011-05-30T14:52:13Z</time>
      </trkpt>
      <trkpt lat="43.28263" lon="2.72851">
        <ele>53.49</ele>
        <time>2011-05-30T14:52:50Z</time>
      </trkpt>
      <trkpt lat="43.28263" lon="2.72851">
        <ele>53.01</ele>
        <time>2011-05-30T14:53:29Z</time>
      </trkpt>
      <trkpt lat="43.28262" lon="2.72852">
        <ele>53.49</ele>
        <time>2011-05-30T14:54:03Z</time>
      </trkpt>
      <trkpt lat="43.28262" lon="2.72852">
        <ele>53.49</ele>
        <time>2011-05-30T14:54:41Z</time>
      </trkpt>
      <trkpt lat="43.28262" lon="2.72852">
        <ele>52.53</ele>
        <time>2011-05-30T14:55:23Z</time>
      </trkpt>
      <trkpt lat="43.28262" lon="2.72852">
        <ele>52.53</ele>
        <time>2011-05-30T14:55:59Z</time>
      </trkpt>
      <trkpt lat="43.28262" lon="2.72853">
        <ele>51.57</ele>
        <time>2011-05-30T14:56:42Z</time>
      </trkpt>
      <trkpt lat="43.28262" lon="2.72852">
        <ele>51.09</ele>
        <time>2011-05-30T14:57:20Z</time>
      </trkpt>
      <trkpt lat="43.28262" lon="2.72852">
        <ele>51.09</ele>
        <time>2011-05-30T14:57:52Z</time>
      </trkpt>
      <trkpt lat="43.28262" lon="2.72852">
        <ele>50.61</ele>
        <time>2011-05-30T14:58:27Z</time>
      </trkpt>
      <trkpt lat="43.28262" lon="2.72852">
        <ele>50.13</ele>
        <time>2011-05-30T14:59:04Z</time>
      </trkpt>
      <trkpt lat="43.28262" lon="2.72852">
        <ele>50.13</ele>
        <time>2011-05-30T14:59:41Z</time>
      </trkpt>
      <trkpt lat="43.28262" lon="2.72852">
        <ele>50.13</ele>
        <time>2011-05-30T15:00:26Z</time>
      </trkpt>
      <trkpt lat="43.28263" lon="2.72853">
        <ele>49.65</ele>
        <time>2011-05-30T15:01:07Z</time>
      </trkpt>
      <trkpt lat="43.28262" lon="2.72853">
        <ele>49.65</ele>
        <time>2011-05-30T15:01:35Z</time>
      </trkpt>
      <trkpt lat="43.28262" lon="2.72853">
        <ele>45.32</ele>
        <time>2011-05-30T15:01:52Z</time>
      </trkpt>
      <trkpt lat="43.28262" lon="2.72853">
        <ele>49.65</ele>
        <time>2011-05-30T15:01:53Z</time>
      </trkpt>
    </trkseg>
  </trk>
</gpx>